sensor_id;sensor_type;location;lat;lon;timestamp;temperature;humidity
76897;SHT30;65856;52.178;21.176;2023-05-24T00:01:08;19.24;50.60
76897;SHT30;65856;52.178;21.176;2023-05-24T00:03:33;19.22;50.57
76897;SHT30;65856;52.178;21.176;2023-05-24T00:06:03;19.20;50.54
76897;SHT30;65856;52.178;21.176;2023-05-24T00:08:31;19.17;50.56
76897;SHT30;65856;52.178;21.176;2023-05-24T00:10:58;19.16;50.58
76897;SHT30;65856;52.178;21.176;2023-05-24T00:13:24;19.15;50.57
76897;SHT30;65856;52.178;21.176;2023-05-24T00:15:49;19.16;50.66
76897;SHT30;65856;52.178;21.176;2023-05-24T00:18:15;19.15;50.57
76897;SHT30;65856;52.178;21.176;2023-05-24T00:20:43;19.14;50.53
76897;SHT30;65856;52.178;21.176;2023-05-24T00:23:09;19.14;51.42
76897;SHT30;65856;52.178;21.176;2023-05-24T00:25:35;19.11;51.29
76897;SHT30;65856;52.178;21.176;2023-05-24T00:28:00;19.11;50.96
76897;SHT30;65856;52.178;21.176;2023-05-24T00:30:26;19.14;50.81
76897;SHT30;65856;52.178;21.176;2023-05-24T00:32:52;19.12;50.71
76897;SHT30;65856;52.178;21.176;2023-05-24T00:35:17;19.12;50.72
76897;SHT30;65856;52.178;21.176;2023-05-24T00:37:43;19.11;51.02
76897;SHT30;65856;52.178;21.176;2023-05-24T00:40:09;19.10;50.88
76897;SHT30;65856;52.178;21.176;2023-05-24T00:42:36;19.08;50.82
76897;SHT30;65856;52.178;21.176;2023-05-24T00:45:03;19.07;50.73
76897;SHT30;65856;52.178;21.176;2023-05-24T00:47:29;19.06;50.76
76897;SHT30;65856;52.178;21.176;2023-05-24T00:49:55;19.03;50.75
76897;SHT30;65856;52.178;21.176;2023-05-24T00:52:21;18.99;50.80
76897;SHT30;65856;52.178;21.176;2023-05-24T00:54:47;18.96;50.86
76897;SHT30;65856;52.178;21.176;2023-05-24T00:57:12;18.95;50.88
76897;SHT30;65856;52.178;21.176;2023-05-24T00:59:39;18.93;50.85
76897;SHT30;65856;52.178;21.176;2023-05-24T01:02:05;18.94;50.85
76897;SHT30;65856;52.178;21.176;2023-05-24T01:04:30;18.95;50.79
76897;SHT30;65856;52.178;21.176;2023-05-24T01:10:06;18.89;50.55
76897;SHT30;65856;52.178;21.176;2023-05-24T01:12:52;18.89;50.69
76897;SHT30;65856;52.178;21.176;2023-05-24T01:18:38;18.90;50.73
76897;SHT30;65856;52.178;21.176;2023-05-24T01:27:11;18.83;50.21
76897;SHT30;65856;52.178;21.176;2023-05-24T01:29:39;18.83;50.14
76897;SHT30;65856;52.178;21.176;2023-05-24T01:32:06;18.83;50.16
76897;SHT30;65856;52.178;21.176;2023-05-24T01:34:32;18.84;50.21
76897;SHT30;65856;52.178;21.176;2023-05-24T01:36:58;18.84;51.73
76897;SHT30;65856;52.178;21.176;2023-05-24T01:39:25;18.82;52.58
76897;SHT30;65856;52.178;21.176;2023-05-24T01:41:58;18.80;52.72
76897;SHT30;65856;52.178;21.176;2023-05-24T01:45:28;18.74;53.74
76897;SHT30;65856;52.178;21.176;2023-05-24T01:48:00;18.68;54.36
76897;SHT30;65856;52.178;21.176;2023-05-24T01:50:57;18.62;54.32
76897;SHT30;65856;52.178;21.176;2023-05-24T01:53:25;18.56;55.20
76897;SHT30;65856;52.178;21.176;2023-05-24T01:56:03;18.51;55.72
76897;SHT30;65856;52.178;21.176;2023-05-24T01:58:30;18.46;55.75
76897;SHT30;65856;52.178;21.176;2023-05-24T02:00:58;18.38;55.69
76897;SHT30;65856;52.178;21.176;2023-05-24T02:03:24;18.30;55.88
76897;SHT30;65856;52.178;21.176;2023-05-24T02:05:50;18.25;55.67
76897;SHT30;65856;52.178;21.176;2023-05-24T02:08:15;18.22;55.53
76897;SHT30;65856;52.178;21.176;2023-05-24T02:10:41;18.17;56.30
76897;SHT30;65856;52.178;21.176;2023-05-24T02:13:07;18.15;56.93
76897;SHT30;65856;52.178;21.176;2023-05-24T02:15:33;18.10;57.06
76897;SHT30;65856;52.178;21.176;2023-05-24T02:17:59;18.06;57.15
76897;SHT30;65856;52.178;21.176;2023-05-24T02:20:29;18.03;57.42
76897;SHT30;65856;52.178;21.176;2023-05-24T02:22:58;18.00;57.15
76897;SHT30;65856;52.178;21.176;2023-05-24T02:25:23;17.96;57.44
76897;SHT30;65856;52.178;21.176;2023-05-24T02:27:49;17.92;57.44
76897;SHT30;65856;52.178;21.176;2023-05-24T02:30:15;17.88;57.66
76897;SHT30;65856;52.178;21.176;2023-05-24T02:32:40;17.82;58.02
76897;SHT30;65856;52.178;21.176;2023-05-24T02:35:06;17.77;56.82
76897;SHT30;65856;52.178;21.176;2023-05-24T02:37:31;17.77;56.23
76897;SHT30;65856;52.178;21.176;2023-05-24T02:39:57;17.77;55.62
76897;SHT30;65856;52.178;21.176;2023-05-24T02:42:22;17.77;55.61
76897;SHT30;65856;52.178;21.176;2023-05-24T02:44:48;17.77;56.08
76897;SHT30;65856;52.178;21.176;2023-05-24T02:47:16;17.79;55.24
76897;SHT30;65856;52.178;21.176;2023-05-24T02:49:43;17.77;56.73
76897;SHT30;65856;52.178;21.176;2023-05-24T02:52:09;17.73;57.73
76897;SHT30;65856;52.178;21.176;2023-05-24T02:54:34;17.68;58.03
76897;SHT30;65856;52.178;21.176;2023-05-24T02:57:00;17.64;58.36
76897;SHT30;65856;52.178;21.176;2023-05-24T02:59:27;17.60;58.75
76897;SHT30;65856;52.178;21.176;2023-05-24T03:01:52;17.54;59.23
76897;SHT30;65856;52.178;21.176;2023-05-24T03:04:17;17.49;59.48
76897;SHT30;65856;52.178;21.176;2023-05-24T03:06:43;17.45;59.78
76897;SHT30;65856;52.178;21.176;2023-05-24T03:09:09;17.42;60.02
76897;SHT30;65856;52.178;21.176;2023-05-24T03:11:34;17.40;60.39
76897;SHT30;65856;52.178;21.176;2023-05-24T03:13:59;17.39;60.48
76897;SHT30;65856;52.178;21.176;2023-05-24T03:16:25;17.37;60.54
76897;SHT30;65856;52.178;21.176;2023-05-24T03:18:51;17.35;60.82
76897;SHT30;65856;52.178;21.176;2023-05-24T03:21:19;17.35;60.67
76897;SHT30;65856;52.178;21.176;2023-05-24T03:23:45;17.34;60.91
76897;SHT30;65856;52.178;21.176;2023-05-24T03:26:10;17.34;61.13
76897;SHT30;65856;52.178;21.176;2023-05-24T03:28:39;17.30;61.23
76897;SHT30;65856;52.178;21.176;2023-05-24T03:31:04;17.28;60.97
76897;SHT30;65856;52.178;21.176;2023-05-24T03:33:31;17.32;59.45
76897;SHT30;65856;52.178;21.176;2023-05-24T03:35:57;17.37;58.40
76897;SHT30;65856;52.178;21.176;2023-05-24T03:38:22;17.41;60.14
76897;SHT30;65856;52.178;21.176;2023-05-24T03:40:48;17.42;60.38
76897;SHT30;65856;52.178;21.176;2023-05-24T03:43:13;17.45;60.51
76897;SHT30;65856;52.178;21.176;2023-05-24T03:45:38;17.49;59.13
76897;SHT30;65856;52.178;21.176;2023-05-24T03:48:04;17.52;58.05
76897;SHT30;65856;52.178;21.176;2023-05-24T03:50:29;17.58;56.64
76897;SHT30;65856;52.178;21.176;2023-05-24T03:52:55;17.63;56.14
76897;SHT30;65856;52.178;21.176;2023-05-24T03:55:20;17.68;55.92
76897;SHT30;65856;52.178;21.176;2023-05-24T03:57:46;17.73;55.39
76897;SHT30;65856;52.178;21.176;2023-05-24T04:00:11;17.76;55.03
76897;SHT30;65856;52.178;21.176;2023-05-24T04:02:38;17.79;54.76
76897;SHT30;65856;52.178;21.176;2023-05-24T04:05:04;17.82;54.49
76897;SHT30;65856;52.178;21.176;2023-05-24T04:07:34;17.85;54.26
76897;SHT30;65856;52.178;21.176;2023-05-24T04:10:03;17.91;54.07
76897;SHT30;65856;52.178;21.176;2023-05-24T04:12:31;17.94;54.08
76897;SHT30;65856;52.178;21.176;2023-05-24T04:14:58;18.00;54.21
76897;SHT30;65856;52.178;21.176;2023-05-24T04:17:24;18.02;53.70
76897;SHT30;65856;52.178;21.176;2023-05-24T04:19:51;18.05;53.51
76897;SHT30;65856;52.178;21.176;2023-05-24T04:22:17;18.07;53.55
76897;SHT30;65856;52.178;21.176;2023-05-24T04:24:43;18.11;53.50
76897;SHT30;65856;52.178;21.176;2023-05-24T04:27:10;18.17;53.46
76897;SHT30;65856;52.178;21.176;2023-05-24T04:29:35;18.23;53.57
76897;SHT30;65856;52.178;21.176;2023-05-24T04:32:04;18.27;53.37
76897;SHT30;65856;52.178;21.176;2023-05-24T04:34:31;18.30;53.12
76897;SHT30;65856;52.178;21.176;2023-05-24T04:36:59;18.33;53.13
76897;SHT30;65856;52.178;21.176;2023-05-24T04:39:26;18.36;53.06
76897;SHT30;65856;52.178;21.176;2023-05-24T04:41:54;18.36;52.94
76897;SHT30;65856;52.178;21.176;2023-05-24T04:44:22;18.36;52.99
76897;SHT30;65856;52.178;21.176;2023-05-24T04:46:48;18.36;52.84
76897;SHT30;65856;52.178;21.176;2023-05-24T04:49:14;18.39;52.88
76897;SHT30;65856;52.178;21.176;2023-05-24T04:51:40;18.43;52.66
76897;SHT30;65856;52.178;21.176;2023-05-24T04:54:06;18.46;52.69
76897;SHT30;65856;52.178;21.176;2023-05-24T04:56:34;18.49;52.76
76897;SHT30;65856;52.178;21.176;2023-05-24T04:59:02;18.55;52.65
76897;SHT30;65856;52.178;21.176;2023-05-24T05:01:32;18.58;52.62
76897;SHT30;65856;52.178;21.176;2023-05-24T05:03:58;18.59;52.44
76897;SHT30;65856;52.178;21.176;2023-05-24T05:06:24;18.62;52.38
76897;SHT30;65856;52.178;21.176;2023-05-24T05:08:50;18.67;52.43
76897;SHT30;65856;52.178;21.176;2023-05-24T05:11:16;18.76;52.47
76897;SHT30;65856;52.178;21.176;2023-05-24T05:13:43;18.89;52.22
76897;SHT30;65856;52.178;21.176;2023-05-24T05:16:09;18.97;51.96
76897;SHT30;65856;52.178;21.176;2023-05-24T05:18:35;19.07;52.15
76897;SHT30;65856;52.178;21.176;2023-05-24T05:21:01;19.19;52.06
76897;SHT30;65856;52.178;21.176;2023-05-24T05:23:28;19.31;51.84
76897;SHT30;65856;52.178;21.176;2023-05-24T05:25:54;19.43;51.60
76897;SHT30;65856;52.178;21.176;2023-05-24T05:28:21;19.58;51.47
76897;SHT30;65856;52.178;21.176;2023-05-24T05:30:46;19.64;51.07
76897;SHT30;65856;52.178;21.176;2023-05-24T05:33:12;19.72;51.09
76897;SHT30;65856;52.178;21.176;2023-05-24T05:35:37;19.97;50.88
76897;SHT30;65856;52.178;21.176;2023-05-24T05:38:03;20.33;50.31
76897;SHT30;65856;52.178;21.176;2023-05-24T05:40:28;20.70;49.64
76897;SHT30;65856;52.178;21.176;2023-05-24T05:42:53;21.05;48.65
76897;SHT30;65856;52.178;21.176;2023-05-24T05:45:19;21.34;47.87
76897;SHT30;65856;52.178;21.176;2023-05-24T05:47:44;21.61;47.33
76897;SHT30;65856;52.178;21.176;2023-05-24T05:50:10;21.73;46.82
76897;SHT30;65856;52.178;21.176;2023-05-24T05:52:35;21.75;46.61
76897;SHT30;65856;52.178;21.176;2023-05-24T05:55:01;21.85;46.27
76897;SHT30;65856;52.178;21.176;2023-05-24T05:57:26;21.84;46.08
76897;SHT30;65856;52.178;21.176;2023-05-24T05:59:52;21.90;46.26
76897;SHT30;65856;52.178;21.176;2023-05-24T06:02:17;22.20;46.25
76897;SHT30;65856;52.178;21.176;2023-05-24T06:04:43;22.47;45.86
76897;SHT30;65856;52.178;21.176;2023-05-24T06:07:10;22.58;45.29
76897;SHT30;65856;52.178;21.176;2023-05-24T06:09:36;22.79;44.82
76897;SHT30;65856;52.178;21.176;2023-05-24T06:12:01;22.97;44.56
76897;SHT30;65856;52.178;21.176;2023-05-24T06:14:26;23.08;44.51
76897;SHT30;65856;52.178;21.176;2023-05-24T06:16:52;23.12;44.53
76897;SHT30;65856;52.178;21.176;2023-05-24T06:19:19;23.09;44.56
76897;SHT30;65856;52.178;21.176;2023-05-24T06:21:45;22.99;44.30
76897;SHT30;65856;52.178;21.176;2023-05-24T06:24:13;22.94;44.81
76897;SHT30;65856;52.178;21.176;2023-05-24T06:26:44;23.05;44.77
76897;SHT30;65856;52.178;21.176;2023-05-24T06:29:10;23.17;44.46
76897;SHT30;65856;52.178;21.176;2023-05-24T06:31:36;23.22;44.00
76897;SHT30;65856;52.178;21.176;2023-05-24T06:34:02;23.24;43.80
76897;SHT30;65856;52.178;21.176;2023-05-24T06:36:27;23.24;43.84
76897;SHT30;65856;52.178;21.176;2023-05-24T06:38:53;23.36;44.02
76897;SHT30;65856;52.178;21.176;2023-05-24T06:41:18;23.47;44.08
76897;SHT30;65856;52.178;21.176;2023-05-24T06:43:43;23.69;43.88
76897;SHT30;65856;52.178;21.176;2023-05-24T06:46:10;24.02;43.26
76897;SHT30;65856;52.178;21.176;2023-05-24T06:48:35;24.33;42.87
76897;SHT30;65856;52.178;21.176;2023-05-24T06:51:01;24.56;42.42
76897;SHT30;65856;52.178;21.176;2023-05-24T06:53:26;24.75;42.30
76897;SHT30;65856;52.178;21.176;2023-05-24T06:55:51;24.90;42.23
76897;SHT30;65856;52.178;21.176;2023-05-24T06:58:17;25.02;41.79
76897;SHT30;65856;52.178;21.176;2023-05-24T07:00:42;25.07;41.72
76897;SHT30;65856;52.178;21.176;2023-05-24T07:03:10;25.26;41.94
76897;SHT30;65856;52.178;21.176;2023-05-24T07:05:37;25.53;42.09
76897;SHT30;65856;52.178;21.176;2023-05-24T07:08:03;25.79;41.77
76897;SHT30;65856;52.178;21.176;2023-05-24T07:10:28;26.01;40.46
76897;SHT30;65856;52.178;21.176;2023-05-24T07:12:54;26.18;39.90
76897;SHT30;65856;52.178;21.176;2023-05-24T07:15:20;26.29;39.61
76897;SHT30;65856;52.178;21.176;2023-05-24T07:17:45;26.26;39.99
76897;SHT30;65856;52.178;21.176;2023-05-24T07:20:12;26.19;39.93
76897;SHT30;65856;52.178;21.176;2023-05-24T07:22:39;26.00;39.70
76897;SHT30;65856;52.178;21.176;2023-05-24T07:25:05;25.87;39.88
76897;SHT30;65856;52.178;21.176;2023-05-24T07:27:31;25.87;40.00
76897;SHT30;65856;52.178;21.176;2023-05-24T07:29:56;25.96;39.72
76897;SHT30;65856;52.178;21.176;2023-05-24T07:32:22;26.13;39.85
76897;SHT30;65856;52.178;21.176;2023-05-24T07:34:48;26.33;39.92
76897;SHT30;65856;52.178;21.176;2023-05-24T07:37:14;26.57;39.93
76897;SHT30;65856;52.178;21.176;2023-05-24T07:39:41;26.80;39.51
76897;SHT30;65856;52.178;21.176;2023-05-24T07:42:07;26.93;38.98
76897;SHT30;65856;52.178;21.176;2023-05-24T07:44:33;27.08;39.12
76897;SHT30;65856;52.178;21.176;2023-05-24T07:46:58;27.30;38.86
76897;SHT30;65856;52.178;21.176;2023-05-24T07:49:26;27.28;38.74
76897;SHT30;65856;52.178;21.176;2023-05-24T07:51:52;27.23;38.58
76897;SHT30;65856;52.178;21.176;2023-05-24T07:54:22;27.25;38.57
76897;SHT30;65856;52.178;21.176;2023-05-24T07:56:47;27.30;38.18
76897;SHT30;65856;52.178;21.176;2023-05-24T07:59:13;27.32;38.22
76897;SHT30;65856;52.178;21.176;2023-05-24T08:01:39;27.30;38.06
76897;SHT30;65856;52.178;21.176;2023-05-24T08:04:05;27.42;38.37
76897;SHT30;65856;52.178;21.176;2023-05-24T08:06:33;27.59;38.12
76897;SHT30;65856;52.178;21.176;2023-05-24T08:08:59;27.60;38.12
76897;SHT30;65856;52.178;21.176;2023-05-24T08:11:27;27.51;37.83
76897;SHT30;65856;52.178;21.176;2023-05-24T08:13:53;27.33;37.73
76897;SHT30;65856;52.178;21.176;2023-05-24T08:16:18;27.17;37.85
76897;SHT30;65856;52.178;21.176;2023-05-24T08:18:44;27.23;38.07
76897;SHT30;65856;52.178;21.176;2023-05-24T08:21:09;27.27;37.88
76897;SHT30;65856;52.178;21.176;2023-05-24T08:23:35;27.25;37.49
76897;SHT30;65856;52.178;21.176;2023-05-24T08:26:00;27.10;37.50
76897;SHT30;65856;52.178;21.176;2023-05-24T08:28:26;26.99;37.93
76897;SHT30;65856;52.178;21.176;2023-05-24T08:30:53;26.94;38.01
76897;SHT30;65856;52.178;21.176;2023-05-24T08:33:19;27.02;38.24
76897;SHT30;65856;52.178;21.176;2023-05-24T08:35:46;27.00;38.01
76897;SHT30;65856;52.178;21.176;2023-05-24T08:38:13;26.86;38.20
76897;SHT30;65856;52.178;21.176;2023-05-24T08:40:39;26.77;38.69
76897;SHT30;65856;52.178;21.176;2023-05-24T08:43:04;26.66;38.61
76897;SHT30;65856;52.178;21.176;2023-05-24T08:45:35;26.58;39.28
76897;SHT30;65856;52.178;21.176;2023-05-24T08:48:06;26.52;39.59
76897;SHT30;65856;52.178;21.176;2023-05-24T08:50:33;26.46;39.69
76897;SHT30;65856;52.178;21.176;2023-05-24T08:53:00;26.40;39.87
76897;SHT30;65856;52.178;21.176;2023-05-24T08:55:32;26.44;40.26
76897;SHT30;65856;52.178;21.176;2023-05-24T08:57:57;26.57;40.01
76897;SHT30;65856;52.178;21.176;2023-05-24T09:00:24;26.66;39.18
76897;SHT30;65856;52.178;21.176;2023-05-24T09:02:50;26.63;39.26
76897;SHT30;65856;52.178;21.176;2023-05-24T09:05:17;26.63;39.73
76897;SHT30;65856;52.178;21.176;2023-05-24T09:07:45;26.72;39.27
76897;SHT30;65856;52.178;21.176;2023-05-24T09:10:14;26.91;39.25
76897;SHT30;65856;52.178;21.176;2023-05-24T09:12:47;27.07;39.15
76897;SHT30;65856;52.178;21.176;2023-05-24T09:15:21;27.15;38.85
76897;SHT30;65856;52.178;21.176;2023-05-24T09:17:47;27.32;39.07
76897;SHT30;65856;52.178;21.176;2023-05-24T09:20:12;27.56;38.94
76897;SHT30;65856;52.178;21.176;2023-05-24T09:22:39;27.74;38.39
76897;SHT30;65856;52.178;21.176;2023-05-24T09:25:07;27.88;38.08
76897;SHT30;65856;52.178;21.176;2023-05-24T09:27:36;28.07;38.53
76897;SHT30;65856;52.178;21.176;2023-05-24T09:30:03;28.37;37.97
76897;SHT30;65856;52.178;21.176;2023-05-24T09:32:34;28.60;37.92
76897;SHT30;65856;52.178;21.176;2023-05-24T09:35:00;28.85;37.87
76897;SHT30;65856;52.178;21.176;2023-05-24T09:37:26;29.02;38.23
76897;SHT30;65856;52.178;21.176;2023-05-24T09:39:53;29.21;38.40
76897;SHT30;65856;52.178;21.176;2023-05-24T09:42:21;29.45;38.22
76897;SHT30;65856;52.178;21.176;2023-05-24T09:44:59;29.54;37.65
76897;SHT30;65856;52.178;21.176;2023-05-24T09:47:32;29.65;38.35
76897;SHT30;65856;52.178;21.176;2023-05-24T09:50:00;29.81;38.40
76897;SHT30;65856;52.178;21.176;2023-05-24T09:52:27;29.91;37.65
76897;SHT30;65856;52.178;21.176;2023-05-24T09:54:53;29.88;37.48
76897;SHT30;65856;52.178;21.176;2023-05-24T09:57:19;29.84;37.60
76897;SHT30;65856;52.178;21.176;2023-05-24T09:59:49;29.81;37.22
76897;SHT30;65856;52.178;21.176;2023-05-24T10:02:16;29.75;35.86
76897;SHT30;65856;52.178;21.176;2023-05-24T10:04:46;29.72;35.28
76897;SHT30;65856;52.178;21.176;2023-05-24T10:07:12;29.72;34.84
76897;SHT30;65856;52.178;21.176;2023-05-24T10:09:40;29.54;34.50
76897;SHT30;65856;52.178;21.176;2023-05-24T10:12:06;29.28;35.00
76897;SHT30;65856;52.178;21.176;2023-05-24T10:14:36;29.10;35.47
76897;SHT30;65856;52.178;21.176;2023-05-24T10:17:03;29.02;35.40
76897;SHT30;65856;52.178;21.176;2023-05-24T10:19:31;28.97;35.31
76897;SHT30;65856;52.178;21.176;2023-05-24T10:21:58;28.94;35.52
76897;SHT30;65856;52.178;21.176;2023-05-24T10:24:30;28.94;35.25
76897;SHT30;65856;52.178;21.176;2023-05-24T10:27:03;28.92;34.87
76897;SHT30;65856;52.178;21.176;2023-05-24T10:29:47;28.92;34.95
76897;SHT30;65856;52.178;21.176;2023-05-24T10:32:31;28.88;34.68
76897;SHT30;65856;52.178;21.176;2023-05-24T10:35:01;28.80;35.06
76897;SHT30;65856;52.178;21.176;2023-05-24T10:37:30;28.77;35.97
76897;SHT30;65856;52.178;21.176;2023-05-24T10:39:57;28.72;35.75
76897;SHT30;65856;52.178;21.176;2023-05-24T10:42:24;28.73;35.29
76897;SHT30;65856;52.178;21.176;2023-05-24T10:44:50;28.65;34.82
76897;SHT30;65856;52.178;21.176;2023-05-24T10:47:16;28.45;34.63
76897;SHT30;65856;52.178;21.176;2023-05-24T10:49:53;28.36;35.17
76897;SHT30;65856;52.178;21.176;2023-05-24T10:52:35;28.39;35.12
76897;SHT30;65856;52.178;21.176;2023-05-24T10:55:05;28.31;35.27
76897;SHT30;65856;52.178;21.176;2023-05-24T10:57:34;28.27;35.37
76897;SHT30;65856;52.178;21.176;2023-05-24T11:02:53;28.16;37.06
76897;SHT30;65856;52.178;21.176;2023-05-24T11:05:47;28.06;36.12
76897;SHT30;65856;52.178;21.176;2023-05-24T11:08:31;28.03;36.05
76897;SHT30;65856;52.178;21.176;2023-05-24T11:11:06;28.07;35.81
76897;SHT30;65856;52.178;21.176;2023-05-24T11:13:38;28.01;35.60
76897;SHT30;65856;52.178;21.176;2023-05-24T11:16:05;27.97;35.53
76897;SHT30;65856;52.178;21.176;2023-05-24T11:18:31;27.98;35.90
76897;SHT30;65856;52.178;21.176;2023-05-24T11:21:02;28.02;36.20
76897;SHT30;65856;52.178;21.176;2023-05-24T11:23:30;28.02;35.41
76897;SHT30;65856;52.178;21.176;2023-05-24T11:25:57;28.00;35.90
76897;SHT30;65856;52.178;21.176;2023-05-24T11:28:23;28.08;36.19
76897;SHT30;65856;52.178;21.176;2023-05-24T11:30:49;27.99;38.53
76897;SHT30;65856;52.178;21.176;2023-05-24T11:33:21;27.79;39.74
76897;SHT30;65856;52.178;21.176;2023-05-24T11:35:52;27.68;40.58
76897;SHT30;65856;52.178;21.176;2023-05-24T11:38:19;27.64;41.32
76897;SHT30;65856;52.178;21.176;2023-05-24T11:40:46;27.54;41.79
76897;SHT30;65856;52.178;21.176;2023-05-24T11:43:15;27.43;41.71
76897;SHT30;65856;52.178;21.176;2023-05-24T11:45:45;27.44;42.02
76897;SHT30;65856;52.178;21.176;2023-05-24T11:48:15;27.53;42.78
76897;SHT30;65856;52.178;21.176;2023-05-24T11:50:43;27.64;42.83
76897;SHT30;65856;52.178;21.176;2023-05-24T11:53:15;27.76;42.79
76897;SHT30;65856;52.178;21.176;2023-05-24T11:55:44;27.89;42.72
76897;SHT30;65856;52.178;21.176;2023-05-24T11:58:23;28.00;41.97
76897;SHT30;65856;52.178;21.176;2023-05-24T12:00:58;28.04;41.69
76897;SHT30;65856;52.178;21.176;2023-05-24T12:03:23;28.01;41.75
76897;SHT30;65856;52.178;21.176;2023-05-24T12:05:49;27.95;42.68
76897;SHT30;65856;52.178;21.176;2023-05-24T12:08:15;27.86;43.01
76897;SHT30;65856;52.178;21.176;2023-05-24T12:10:41;27.79;41.91
76897;SHT30;65856;52.178;21.176;2023-05-24T12:13:20;27.68;41.46
76897;SHT30;65856;52.178;21.176;2023-05-24T12:15:50;27.58;42.83
76897;SHT30;65856;52.178;21.176;2023-05-24T12:18:23;27.53;43.83
76897;SHT30;65856;52.178;21.176;2023-05-24T12:20:50;27.45;45.00
76897;SHT30;65856;52.178;21.176;2023-05-24T12:23:20;27.31;45.68
76897;SHT30;65856;52.178;21.176;2023-05-24T12:25:56;27.23;45.87
76897;SHT30;65856;52.178;21.176;2023-05-24T12:28:26;27.17;47.33
76897;SHT30;65856;52.178;21.176;2023-05-24T12:30:59;27.10;49.43
76897;SHT30;65856;52.178;21.176;2023-05-24T12:33:25;26.98;51.45
76897;SHT30;65856;52.178;21.176;2023-05-24T12:35:50;26.81;51.57
76897;SHT30;65856;52.178;21.176;2023-05-24T12:38:18;26.67;52.60
76897;SHT30;65856;52.178;21.176;2023-05-24T12:40:49;26.56;52.90
76897;SHT30;65856;52.178;21.176;2023-05-24T12:43:15;26.45;54.11
76897;SHT30;65856;52.178;21.176;2023-05-24T12:45:44;26.29;56.34
76897;SHT30;65856;52.178;21.176;2023-05-24T12:48:11;26.08;56.70
76897;SHT30;65856;52.178;21.176;2023-05-24T12:50:36;25.89;53.37
76897;SHT30;65856;52.178;21.176;2023-05-24T12:53:02;25.59;51.90
76897;SHT30;65856;52.178;21.176;2023-05-24T12:55:28;25.36;51.53
76897;SHT30;65856;52.178;21.176;2023-05-24T12:57:54;25.18;51.43
76897;SHT30;65856;52.178;21.176;2023-05-24T13:00:22;24.86;51.52
76897;SHT30;65856;52.178;21.176;2023-05-24T13:02:51;24.51;51.89
76897;SHT30;65856;52.178;21.176;2023-05-24T13:05:20;24.14;49.99
76897;SHT30;65856;52.178;21.176;2023-05-24T13:07:51;23.92;51.95
76897;SHT30;65856;52.178;21.176;2023-05-24T13:10:18;23.78;51.71
76897;SHT30;65856;52.178;21.176;2023-05-24T13:12:44;23.74;55.45
76897;SHT30;65856;52.178;21.176;2023-05-24T13:15:11;23.60;56.87
76897;SHT30;65856;52.178;21.176;2023-05-24T13:17:37;23.47;57.32
76897;SHT30;65856;52.178;21.176;2023-05-24T13:20:05;23.30;57.97
76897;SHT30;65856;52.178;21.176;2023-05-24T13:22:34;23.20;57.61
76897;SHT30;65856;52.178;21.176;2023-05-24T13:24:59;23.18;59.23
76897;SHT30;65856;52.178;21.176;2023-05-24T13:27:26;23.14;61.38
76897;SHT30;65856;52.178;21.176;2023-05-24T13:29:52;23.09;61.23
76897;SHT30;65856;52.178;21.176;2023-05-24T13:32:17;23.03;63.01
76897;SHT30;65856;52.178;21.176;2023-05-24T13:34:43;23.01;63.30
76897;SHT30;65856;52.178;21.176;2023-05-24T13:37:08;22.99;62.97
76897;SHT30;65856;52.178;21.176;2023-05-24T13:39:34;22.96;63.62
76897;SHT30;65856;52.178;21.176;2023-05-24T13:42:01;22.92;64.69
76897;SHT30;65856;52.178;21.176;2023-05-24T13:44:26;22.83;64.37
76897;SHT30;65856;52.178;21.176;2023-05-24T13:46:52;22.80;65.03
76897;SHT30;65856;52.178;21.176;2023-05-24T13:49:18;22.81;62.41
76897;SHT30;65856;52.178;21.176;2023-05-24T13:51:44;22.85;62.51
76897;SHT30;65856;52.178;21.176;2023-05-24T13:54:11;22.89;64.61
76897;SHT30;65856;52.178;21.176;2023-05-24T13:56:37;22.91;62.93
76897;SHT30;65856;52.178;21.176;2023-05-24T13:59:04;22.91;60.84
76897;SHT30;65856;52.178;21.176;2023-05-24T14:01:31;22.91;60.66
76897;SHT30;65856;52.178;21.176;2023-05-24T14:04:00;22.89;60.95
76897;SHT30;65856;52.178;21.176;2023-05-24T14:06:27;22.86;61.50
76897;SHT30;65856;52.178;21.176;2023-05-24T14:08:52;22.84;62.04
76897;SHT30;65856;52.178;21.176;2023-05-24T14:11:18;22.80;61.85
76897;SHT30;65856;52.178;21.176;2023-05-24T14:13:44;22.74;59.54
76897;SHT30;65856;52.178;21.176;2023-05-24T14:16:09;22.65;58.93
76897;SHT30;65856;52.178;21.176;2023-05-24T14:18:35;22.56;59.32
76897;SHT30;65856;52.178;21.176;2023-05-24T14:21:01;22.52;57.67
76897;SHT30;65856;52.178;21.176;2023-05-24T14:23:27;22.48;56.98
76897;SHT30;65856;52.178;21.176;2023-05-24T14:25:56;22.44;56.95
76897;SHT30;65856;52.178;21.176;2023-05-24T14:28:22;22.43;56.72
76897;SHT30;65856;52.178;21.176;2023-05-24T14:30:48;22.40;55.69
76897;SHT30;65856;52.178;21.176;2023-05-24T14:33:13;22.38;54.40
76897;SHT30;65856;52.178;21.176;2023-05-24T14:35:39;22.39;54.95
76897;SHT30;65856;52.178;21.176;2023-05-24T14:38:05;22.41;54.44
76897;SHT30;65856;52.178;21.176;2023-05-24T14:40:33;22.41;54.32
76897;SHT30;65856;52.178;21.176;2023-05-24T14:43:04;22.46;54.52
76897;SHT30;65856;52.178;21.176;2023-05-24T14:45:33;22.52;54.16
76897;SHT30;65856;52.178;21.176;2023-05-24T14:47:59;22.57;55.96
76897;SHT30;65856;52.178;21.176;2023-05-24T14:50:25;22.58;56.86
76897;SHT30;65856;52.178;21.176;2023-05-24T14:52:51;22.58;55.82
76897;SHT30;65856;52.178;21.176;2023-05-24T14:55:16;22.55;55.96
76897;SHT30;65856;52.178;21.176;2023-05-24T14:57:42;22.55;56.00
76897;SHT30;65856;52.178;21.176;2023-05-24T15:00:08;22.55;59.65
76897;SHT30;65856;52.178;21.176;2023-05-24T15:02:35;22.54;57.95
76897;SHT30;65856;52.178;21.176;2023-05-24T15:05:01;22.55;58.46
76897;SHT30;65856;52.178;21.176;2023-05-24T15:07:27;22.54;60.68
76897;SHT30;65856;52.178;21.176;2023-05-24T15:09:53;22.54;62.19
76897;SHT30;65856;52.178;21.176;2023-05-24T15:12:18;22.54;63.86
76897;SHT30;65856;52.178;21.176;2023-05-24T15:14:44;22.53;64.30
76897;SHT30;65856;52.178;21.176;2023-05-24T15:17:10;22.47;62.94
76897;SHT30;65856;52.178;21.176;2023-05-24T15:19:36;22.42;61.43
76897;SHT30;65856;52.178;21.176;2023-05-24T15:22:02;22.40;60.84
76897;SHT30;65856;52.178;21.176;2023-05-24T15:24:28;22.45;61.02
76897;SHT30;65856;52.178;21.176;2023-05-24T15:26:54;22.50;60.82
76897;SHT30;65856;52.178;21.176;2023-05-24T15:29:19;22.57;61.50
76897;SHT30;65856;52.178;21.176;2023-05-24T15:31:45;22.61;62.66